createdAt,value
2023-05-05T00:00:07.886Z,14.20
2023-05-05T00:02:59.231Z,15.00
2023-05-05T00:05:30.878Z,16.30
2023-05-05T00:07:59.622Z,13.80
2023-05-05T00:10:28.332Z,13.80
2023-05-05T00:13:00.642Z,13.00
2023-05-05T00:15:30.319Z,15.00
2023-05-05T00:18:00.344Z,15.90
2023-05-05T00:20:28.891Z,13.60
2023-05-05T00:22:58.388Z,12.80
2023-05-05T00:25:27.096Z,12.20
2023-05-05T00:27:58.271Z,13.80
2023-05-05T00:30:39.835Z,11.40
2023-05-05T00:33:10.188Z,13.20
2023-05-05T00:35:42.532Z,13.40
2023-05-05T00:38:13.637Z,12.80
2023-05-05T00:40:48.621Z,14.10
2023-05-05T00:43:17.213Z,14.30
2023-05-05T00:45:57.488Z,15.00
2023-05-05T00:48:32.913Z,13.90
2023-05-05T00:51:01.577Z,15.80
2023-05-05T00:53:32.913Z,14.60
2023-05-05T00:56:07.215Z,14.50
2023-05-05T00:58:38.386Z,14.30
2023-05-05T01:01:20.888Z,14.10
2023-05-05T01:07:01.101Z,13.50
2023-05-05T01:10:15.639Z,16.80
2023-05-05T01:13:17.693Z,12.70
2023-05-05T01:16:00.950Z,14.40
2023-05-05T01:19:08.137Z,15.70
2023-05-05T01:21:43.638Z,14.10
2023-05-05T01:24:51.655Z,15.20
2023-05-05T01:27:34.432Z,16.40
2023-05-05T01:30:09.271Z,17.50
2023-05-05T01:32:51.264Z,15.50
2023-05-05T01:35:27.457Z,15.80
2023-05-05T01:38:06.153Z,16.60
2023-05-05T01:40:43.766Z,17.20
2023-05-05T01:43:20.112Z,17.80
2023-05-05T01:45:53.796Z,17.00
2023-05-05T01:48:24.859Z,16.00
2023-05-05T01:50:55.853Z,16.10
2023-05-05T01:53:30.002Z,16.80
2023-05-05T01:56:08.277Z,18.10
2023-05-05T01:58:43.327Z,17.50
2023-05-05T02:01:15.900Z,18.00
2023-05-05T02:03:48.826Z,20.00
2023-05-05T02:06:21.445Z,18.70
2023-05-05T02:08:51.627Z,22.90
2023-05-05T02:11:22.043Z,24.00
2023-05-05T02:13:52.194Z,20.50
2023-05-05T02:16:22.995Z,24.20
2023-05-05T02:18:54.309Z,24.70
2023-05-05T02:21:32.338Z,25.10
2023-05-05T02:24:12.578Z,23.20
2023-05-05T02:26:46.111Z,25.20
2023-05-05T02:29:31.873Z,24.70
2023-05-05T02:32:37.361Z,28.30
2023-05-05T02:35:34.397Z,25.10
2023-05-05T02:38:10.166Z,29.20
2023-05-05T02:40:47.516Z,27.20
2023-05-05T02:43:21.695Z,26.20
2023-05-05T02:45:50.783Z,27.10
2023-05-05T02:48:44.959Z,22.70
2023-05-05T02:51:18.469Z,23.30
2023-05-05T02:53:55.123Z,27.00
2023-05-05T02:56:39.401Z,20.30
2023-05-05T02:59:20.033Z,17.90
2023-05-05T03:02:15.959Z,19.20
2023-05-05T03:05:00.757Z,19.40
2023-05-05T03:07:51.960Z,18.70
2023-05-05T03:10:57.414Z,18.70
2023-05-05T03:13:30.786Z,20.40
2023-05-05T03:16:06.881Z,16.90
2023-05-05T03:18:40.104Z,18.00
2023-05-05T03:21:09.751Z,19.90
2023-05-05T03:23:41.008Z,19.60
2023-05-05T03:26:25.038Z,22.50
2023-05-05T03:28:56.299Z,19.10
2023-05-05T03:31:43.917Z,18.70
2023-05-05T03:34:17.149Z,18.30
2023-05-05T03:36:53.053Z,17.30
2023-05-05T03:39:21.846Z,16.20
2023-05-05T03:41:50.523Z,20.20
2023-05-05T03:44:25.083Z,17.40
2023-05-05T03:46:57.347Z,19.50
2023-05-05T03:49:32.294Z,15.20
2023-05-05T03:52:15.042Z,18.40
2023-05-05T03:54:46.249Z,20.00
2023-05-05T03:57:14.371Z,17.40
2023-05-05T03:59:42.566Z,19.40
2023-05-05T04:02:10.967Z,17.90
2023-05-05T04:04:38.971Z,18.40
2023-05-05T04:07:07.090Z,17.60
2023-05-05T04:09:35.456Z,19.10
2023-05-05T04:12:04.891Z,22.70
2023-05-05T04:17:02.124Z,21.70
2023-05-05T04:19:34.629Z,20.50
2023-05-05T04:22:03.795Z,22.70
2023-05-05T04:24:32.216Z,23.80
2023-05-05T04:27:01.260Z,22.10
2023-05-05T04:29:30.119Z,20.40
2023-05-05T04:31:58.166Z,22.00
2023-05-05T04:34:26.321Z,24.30
2023-05-05T04:36:54.552Z,20.90
2023-05-05T04:39:22.698Z,21.80
2023-05-05T04:41:51.468Z,22.60
2023-05-05T04:44:20.367Z,21.30
2023-05-05T04:46:48.526Z,21.50
2023-05-05T04:49:17.475Z,21.40
2023-05-05T04:51:46.606Z,20.90
2023-05-05T04:54:15.071Z,21.10
2023-05-05T04:56:57.999Z,21.00
2023-05-05T04:59:26.423Z,21.90
2023-05-05T05:01:54.717Z,20.00
2023-05-05T05:04:23.034Z,21.80
2023-05-05T05:06:52.761Z,19.40
2023-05-05T05:09:20.801Z,19.60
2023-05-05T05:11:48.922Z,20.10
2023-05-05T05:14:19.794Z,20.40
2023-05-05T05:16:54.907Z,22.20
2023-05-05T05:19:24.400Z,20.00
2023-05-05T05:21:54.587Z,18.10
2023-05-05T05:24:23.166Z,21.20
2023-05-05T05:26:52.111Z,19.00
2023-05-05T05:29:20.562Z,19.80
2023-05-05T05:31:50.264Z,17.30
2023-05-05T05:34:18.577Z,20.90
2023-05-05T05:36:46.810Z,18.20
2023-05-05T05:39:14.973Z,23.50
2023-05-05T05:41:43.054Z,19.20
2023-05-05T05:44:11.260Z,18.90
2023-05-05T05:46:39.408Z,21.60
2023-05-05T05:49:07.685Z,18.90
2023-05-05T05:51:35.856Z,17.10
2023-05-05T05:54:04.133Z,19.30
2023-05-05T05:56:32.426Z,18.80
2023-05-05T05:59:01.678Z,19.60
2023-05-05T06:01:29.842Z,22.10
2023-05-05T06:03:58.295Z,21.20
2023-05-05T06:06:28.037Z,16.70
2023-05-05T06:08:56.015Z,19.70
2023-05-05T06:11:24.295Z,22.60
2023-05-05T06:13:52.277Z,18.40
2023-05-05T06:16:20.494Z,17.10
2023-05-05T06:18:49.055Z,15.80
2023-05-05T06:21:20.655Z,13.90
2023-05-05T06:23:48.670Z,18.40
2023-05-05T06:26:18.451Z,15.80
2023-05-05T06:28:46.625Z,15.90
2023-05-05T06:31:14.927Z,14.20
2023-05-05T06:33:43.168Z,15.00
2023-05-05T06:36:11.257Z,14.30
2023-05-05T06:38:39.420Z,13.00
2023-05-05T06:41:07.484Z,14.80
2023-05-05T06:43:35.657Z,14.00
2023-05-05T06:46:07.780Z,16.50
2023-05-05T06:48:35.955Z,17.60
2023-05-05T06:51:03.918Z,19.70
2023-05-05T06:53:31.983Z,14.10
2023-05-05T06:56:00.040Z,13.90
2023-05-05T06:58:28.252Z,13.80
2023-05-05T07:00:56.329Z,13.20
2023-05-05T07:03:24.265Z,13.80
2023-05-05T07:05:53.904Z,16.40
2023-05-05T07:08:21.986Z,15.10
2023-05-05T07:10:49.952Z,15.20
2023-05-05T07:13:17.943Z,13.90
2023-05-05T07:15:48.810Z,18.40
2023-05-05T07:18:17.258Z,13.00
2023-05-05T07:20:45.226Z,13.90
2023-05-05T07:23:13.165Z,15.50
2023-05-05T07:25:41.110Z,14.50
2023-05-05T07:28:09.210Z,13.80
2023-05-05T07:30:37.149Z,11.80
2023-05-05T07:33:05.206Z,14.60
2023-05-05T07:35:33.263Z,16.90
2023-05-05T07:38:01.234Z,15.70
2023-05-05T07:40:29.268Z,11.10
2023-05-05T07:42:57.166Z,12.70
2023-05-05T07:45:25.184Z,11.40
2023-05-05T07:48:00.718Z,13.30
2023-05-05T07:50:57.501Z,13.60
2023-05-05T07:53:25.817Z,13.10
2023-05-05T07:55:58.641Z,13.10
2023-05-05T07:58:26.958Z,11.70
2023-05-05T08:01:01.736Z,11.10
2023-05-05T08:03:35.440Z,12.90
2023-05-05T08:06:12.091Z,15.00
2023-05-05T08:08:57.633Z,10.70
2023-05-05T08:11:31.088Z,10.30
2023-05-05T08:13:59.284Z,11.70
2023-05-05T08:16:27.986Z,11.50
2023-05-05T08:18:57.670Z,10.60
2023-05-05T08:21:26.010Z,17.40
2023-05-05T08:23:54.497Z,14.20
2023-05-05T08:26:37.617Z,13.90
2023-05-05T08:29:06.051Z,10.50
2023-05-05T08:31:39.697Z,11.60
2023-05-05T08:34:07.901Z,15.80
2023-05-05T08:36:36.328Z,12.80
2023-05-05T08:39:04.672Z,15.20
2023-05-05T08:41:35.645Z,13.90
2023-05-05T08:44:03.685Z,21.40
2023-05-05T08:46:32.509Z,19.00
2023-05-05T08:49:03.750Z,10.80
2023-05-05T08:51:37.759Z,14.20
2023-05-05T08:54:12.461Z,13.20
2023-05-05T08:56:43.702Z,45.20
2023-05-05T08:59:13.478Z,13.40
2023-05-05T09:01:44.393Z,14.30
2023-05-05T09:04:15.122Z,17.10
2023-05-05T09:06:43.169Z,14.00
2023-05-05T09:09:12.006Z,15.00
2023-05-05T09:11:41.621Z,13.00
2023-05-05T09:14:09.596Z,10.00
2023-05-05T09:16:43.646Z,12.50
2023-05-05T09:19:11.752Z,13.10
2023-05-05T09:21:48.727Z,11.60
2023-05-05T09:24:16.840Z,11.90
2023-05-05T09:26:46.744Z,12.20
2023-05-05T09:29:19.649Z,10.90
2023-05-05T09:32:08.465Z,10.50
2023-05-05T09:34:37.737Z,9.60
2023-05-05T09:37:06.343Z,13.00
2023-05-05T09:39:34.703Z,13.00
2023-05-05T09:42:03.154Z,10.10
2023-05-05T09:44:36.368Z,12.40
2023-05-05T09:47:15.086Z,9.40
2023-05-05T09:50:01.279Z,9.90
2023-05-05T09:52:30.580Z,11.70
2023-05-05T09:54:58.608Z,14.40
2023-05-05T09:57:29.370Z,10.20
2023-05-05T09:59:59.677Z,9.40
2023-05-05T10:02:33.171Z,9.60
2023-05-05T10:05:16.038Z,9.80
2023-05-05T10:07:46.566Z,10.40
2023-05-05T10:10:18.509Z,11.60
2023-05-05T10:12:48.080Z,12.00
2023-05-05T10:15:16.240Z,14.90
2023-05-05T10:18:06.034Z,10.80
2023-05-05T10:20:38.713Z,13.30
2023-05-05T10:23:11.044Z,8.50
2023-05-05T10:25:52.913Z,9.40
2023-05-05T10:28:30.656Z,7.30
2023-05-05T10:31:02.181Z,7.80
2023-05-05T10:33:55.843Z,8.30
2023-05-05T10:36:25.026Z,8.90
2023-05-05T10:38:57.856Z,6.60
2023-05-05T10:41:27.064Z,11.10
2023-05-05T10:43:57.770Z,7.50
2023-05-05T10:46:28.354Z,8.40
2023-05-05T10:49:22.899Z,6.30
2023-05-05T10:52:34.671Z,9.30
2023-05-05T10:55:27.676Z,10.80
2023-05-05T10:57:56.060Z,9.30
2023-05-05T11:00:39.658Z,11.20
2023-05-05T11:03:16.944Z,9.80
2023-05-05T11:06:03.429Z,7.90
2023-05-05T11:08:33.353Z,13.20
2023-05-05T11:13:30.357Z,8.50
2023-05-05T11:16:00.228Z,8.30
2023-05-05T11:18:36.035Z,10.10
2023-05-05T11:21:15.430Z,8.60
2023-05-05T11:23:49.252Z,14.30
2023-05-05T11:26:38.470Z,6.90
2023-05-05T11:29:06.794Z,10.00
2023-05-05T11:31:35.101Z,9.70
2023-05-05T11:34:48.441Z,13.00
2023-05-05T11:37:17.269Z,10.30
2023-05-05T11:40:10.336Z,11.70
2023-05-05T11:42:38.602Z,11.80
2023-05-05T11:45:23.791Z,10.40
2023-05-05T11:47:51.812Z,8.40
2023-05-05T11:50:21.446Z,9.30
2023-05-05T11:52:49.576Z,12.90
2023-05-05T11:55:21.057Z,10.50
2023-05-05T11:57:49.136Z,11.00
2023-05-05T12:00:17.658Z,9.90
2023-05-05T12:02:46.117Z,8.80
2023-05-05T12:05:21.356Z,12.10
2023-05-05T12:07:57.447Z,8.80
2023-05-05T12:10:25.657Z,8.30
2023-05-05T12:12:55.500Z,10.50
2023-05-05T12:15:32.205Z,7.70
2023-05-05T12:18:02.353Z,8.30
2023-05-05T12:20:36.797Z,10.50
2023-05-05T12:23:04.853Z,10.60
2023-05-05T12:25:37.007Z,13.60
2023-05-05T12:28:09.419Z,13.60
2023-05-05T12:30:37.676Z,8.10
2023-05-05T12:33:07.296Z,11.40
2023-05-05T12:35:35.887Z,11.30
2023-05-05T12:38:04.138Z,14.60
2023-05-05T12:40:49.270Z,10.50
2023-05-05T12:43:31.286Z,8.80
2023-05-05T12:46:10.208Z,9.30
2023-05-05T12:48:40.617Z,10.80
2023-05-05T12:51:16.242Z,7.50
2023-05-05T12:53:48.931Z,7.00
2023-05-05T12:56:30.624Z,9.40
2023-05-05T12:58:58.758Z,7.30
2023-05-05T13:01:27.689Z,5.90
2023-05-05T13:04:12.901Z,9.90
2023-05-05T13:06:43.315Z,8.20
2023-05-05T13:09:30.310Z,7.10
2023-05-05T13:11:58.624Z,7.40
2023-05-05T13:14:26.608Z,9.10
2023-05-05T13:16:54.682Z,6.50
2023-05-05T13:19:25.217Z,7.40
2023-05-05T13:21:57.791Z,10.20
2023-05-05T13:24:42.121Z,10.10
2023-05-05T13:27:14.238Z,9.80
2023-05-05T13:29:42.564Z,7.30
2023-05-05T13:32:10.438Z,7.20
2023-05-05T13:34:39.315Z,6.10
2023-05-05T13:37:07.499Z,6.90
2023-05-05T13:39:35.503Z,9.10
2023-05-05T13:42:03.610Z,7.40
2023-05-05T13:44:31.625Z,6.40
2023-05-05T13:46:59.608Z,9.00
2023-05-05T13:49:27.991Z,10.40
2023-05-05T13:51:56.474Z,8.00
2023-05-05T13:54:24.393Z,7.00
2023-05-05T13:56:52.451Z,8.10
2023-05-05T13:59:20.434Z,9.40
2023-05-05T14:01:48.976Z,7.40
2023-05-05T14:04:17.081Z,12.50
2023-05-05T14:06:45.247Z,12.40
2023-05-05T14:09:13.198Z,10.30
2023-05-05T14:11:41.182Z,7.80
2023-05-05T14:14:09.170Z,8.40
2023-05-05T14:16:37.341Z,7.30
2023-05-05T14:19:05.825Z,8.10
2023-05-05T14:21:33.861Z,8.60
2023-05-05T14:24:01.832Z,7.30
2023-05-05T14:26:29.772Z,5.60
2023-05-05T14:28:57.691Z,6.90
2023-05-05T14:31:25.899Z,8.40
2023-05-05T14:33:54.035Z,7.30
2023-05-05T14:36:21.959Z,5.70
2023-05-05T14:38:49.904Z,4.90
2023-05-05T14:41:17.870Z,8.30
2023-05-05T14:43:45.819Z,6.00
2023-05-05T14:46:13.770Z,5.80
2023-05-05T14:48:41.713Z,4.30
2023-05-05T14:51:09.771Z,5.40
2023-05-05T14:53:37.816Z,7.20
2023-05-05T14:56:06.133Z,6.40
2023-05-05T14:58:34.187Z,8.00
2023-05-05T15:01:02.106Z,6.50
2023-05-05T15:03:30.336Z,6.50
2023-05-05T15:05:58.571Z,11.30
2023-05-05T15:08:26.722Z,5.70
2023-05-05T15:10:54.675Z,5.80
2023-05-05T15:13:22.649Z,5.70
2023-05-05T15:15:51.470Z,5.50
2023-05-05T15:18:19.495Z,8.40
2023-05-05T15:20:47.756Z,7.10
2023-05-05T15:23:16.195Z,6.80
2023-05-05T15:25:44.116Z,5.70
2023-05-05T15:28:12.120Z,9.70
2023-05-05T15:30:40.052Z,7.80
2023-05-05T15:33:07.970Z,12.10
2023-05-05T15:35:36.371Z,6.90
2023-05-05T15:38:04.358Z,7.40
2023-05-05T15:40:32.451Z,5.40
2023-05-05T15:43:00.282Z,12.00
2023-05-05T15:45:28.317Z,8.90
2023-05-05T15:47:56.187Z,9.40
2023-05-05T15:50:24.119Z,8.80
2023-05-05T15:52:52.160Z,4.70
2023-05-05T15:55:20.571Z,6.90
2023-05-05T15:57:48.725Z,6.30
2023-05-05T16:00:16.887Z,8.00
2023-05-05T16:02:45.326Z,7.30
2023-05-05T16:05:13.590Z,7.80
2023-05-05T16:07:41.589Z,5.30
2023-05-05T16:10:10.760Z,6.90
2023-05-05T16:12:38.848Z,6.80
2023-05-05T16:15:10.513Z,8.40
2023-05-05T16:17:41.577Z,8.60
2023-05-05T16:20:10.598Z,5.60
2023-05-05T16:22:38.684Z,6.50
2023-05-05T16:25:07.856Z,6.20
2023-05-05T16:27:36.054Z,6.50
2023-05-05T16:30:04.459Z,9.00
2023-05-05T16:35:02.108Z,5.40
2023-05-05T16:37:30.048Z,10.80
2023-05-05T16:39:57.893Z,10.50
2023-05-05T16:42:27.397Z,7.50
2023-05-05T16:44:55.336Z,7.70
2023-05-05T16:47:23.399Z,8.30
2023-05-05T16:49:52.595Z,6.50
2023-05-05T16:52:20.490Z,5.50
2023-05-05T16:54:55.435Z,8.40
2023-05-05T16:57:23.795Z,12.20
2023-05-05T16:59:55.718Z,9.80
2023-05-05T17:02:23.616Z,10.80
2023-05-05T17:04:54.415Z,9.10
2023-05-05T17:07:22.390Z,9.10
2023-05-05T17:09:50.216Z,10.70
2023-05-05T17:12:18.069Z,9.00
2023-05-05T17:14:46.077Z,7.10
2023-05-05T17:17:14.181Z,6.30
2023-05-05T17:19:42.793Z,8.60
2023-05-05T17:22:10.747Z,6.50
2023-05-05T17:24:38.754Z,10.00
2023-05-05T17:27:06.674Z,11.00
2023-05-05T17:29:40.499Z,13.40
2023-05-05T17:32:09.040Z,11.30
2023-05-05T17:34:41.845Z,9.30
2023-05-05T17:37:09.781Z,9.40
2023-05-05T17:42:07.735Z,15.10
2023-05-05T17:44:35.721Z,13.40
2023-05-05T17:47:07.796Z,14.20
2023-05-05T17:49:36.334Z,16.00
2023-05-05T17:52:04.789Z,13.30
2023-05-05T17:57:03.778Z,16.80
2023-05-05T17:59:32.104Z,18.10
2023-05-05T18:02:09.125Z,18.40
2023-05-05T18:04:37.678Z,18.80
2023-05-05T18:07:05.637Z,19.10
2023-05-05T18:09:33.925Z,29.10
2023-05-05T18:12:03.684Z,42.30
2023-05-05T18:14:31.558Z,59.90
2023-05-05T18:17:01.419Z,88.50
2023-05-05T18:19:29.423Z,83.30
2023-05-05T18:21:57.555Z,120.20
2023-05-05T18:24:25.883Z,119.90
2023-05-05T18:26:53.793Z,125.80
2023-05-05T18:29:22.054Z,118.90
2023-05-05T18:31:53.228Z,108.50
2023-05-05T18:34:21.354Z,116.90
2023-05-05T18:36:51.519Z,132.50
2023-05-05T18:41:48.187Z,146.40
2023-05-05T18:44:18.026Z,149.10
2023-05-05T18:46:47.484Z,134.30
2023-05-05T18:49:16.322Z,143.10
2023-05-05T18:51:44.482Z,151.10
2023-05-05T18:54:12.747Z,137.80
2023-05-05T18:56:40.663Z,109.60
2023-05-05T18:59:09.155Z,121.10
2023-05-05T19:01:37.154Z,109.40
2023-05-05T19:04:08.479Z,98.20
2023-05-05T19:06:41.049Z,105.80
2023-05-05T19:09:10.674Z,93.90
2023-05-05T19:11:50.210Z,90.20
2023-05-05T19:14:22.878Z,78.10
2023-05-05T19:16:51.284Z,62.00
2023-05-05T19:19:19.252Z,73.20
2023-05-05T19:21:47.247Z,26.90
2023-05-05T19:24:15.378Z,29.30
2023-05-05T19:26:46.399Z,30.10
2023-05-05T19:29:17.708Z,19.00
2023-05-05T19:31:45.732Z,20.50
2023-05-05T19:34:13.841Z,21.10
2023-05-05T19:36:41.956Z,26.50
2023-05-05T19:39:09.851Z,20.60
2023-05-05T19:41:40.161Z,22.70
2023-05-05T19:44:08.185Z,28.00
2023-05-05T19:46:36.262Z,23.60
2023-05-05T19:49:04.172Z,24.00
2023-05-05T19:51:32.136Z,22.60
2023-05-05T19:54:00.218Z,26.10
2023-05-05T19:56:30.220Z,34.40
2023-05-05T19:59:02.508Z,31.30
2023-05-05T20:01:30.675Z,45.00
2023-05-05T20:03:58.688Z,41.50
2023-05-05T20:06:27.113Z,40.00
2023-05-05T20:08:55.558Z,35.10
2023-05-05T20:11:25.006Z,32.70
2023-05-05T20:13:56.870Z,31.20
2023-05-05T20:16:24.898Z,32.90
2023-05-05T20:21:23.151Z,34.40
2023-05-05T20:23:51.180Z,27.80
2023-05-05T20:26:19.332Z,33.70
2023-05-05T20:28:47.352Z,31.00
2023-05-05T20:31:15.462Z,28.70
2023-05-05T20:33:43.401Z,33.20
2023-05-05T20:36:11.757Z,27.30
2023-05-05T20:38:43.619Z,28.10
2023-05-05T20:41:11.708Z,27.00
2023-05-05T20:43:40.256Z,23.20
2023-05-05T20:46:13.104Z,28.50
2023-05-05T20:48:43.085Z,25.90
2023-05-05T20:51:11.677Z,26.70
2023-05-05T20:53:40.007Z,24.60
2023-05-05T20:56:10.365Z,32.00
2023-05-05T20:58:38.555Z,28.20
2023-05-05T21:01:06.709Z,25.20
2023-05-05T21:03:36.322Z,29.80
2023-05-05T21:06:04.602Z,23.50
2023-05-05T21:08:37.430Z,27.90
2023-05-05T21:11:10.659Z,28.40
2023-05-05T21:13:39.082Z,27.50
2023-05-05T21:16:07.606Z,29.40
2023-05-05T21:18:36.094Z,29.30
2023-05-05T21:21:04.602Z,23.40
2023-05-05T21:23:35.228Z,43.00
2023-05-05T21:26:03.852Z,26.10
2023-05-05T21:28:32.491Z,24.30
2023-05-05T21:31:20.575Z,24.80
2023-05-05T21:33:49.730Z,19.40
2023-05-05T21:36:19.233Z,25.60
2023-05-05T21:38:47.505Z,21.20
2023-05-05T21:41:16.897Z,23.70
2023-05-05T21:43:49.554Z,24.10
2023-05-05T21:46:18.254Z,21.30
2023-05-05T21:48:47.404Z,23.60
2023-05-05T21:51:23.067Z,25.00
2023-05-05T21:53:51.469Z,20.20
2023-05-05T21:56:19.617Z,20.90
2023-05-05T21:58:47.690Z,24.10
2023-05-05T22:01:16.084Z,23.10
2023-05-05T22:03:44.539Z,20.70
2023-05-05T22:06:20.501Z,21.90
2023-05-05T22:08:53.157Z,21.40
2023-05-05T22:11:29.101Z,19.90
2023-05-05T22:13:57.249Z,24.10
2023-05-05T22:16:27.780Z,19.70
2023-05-05T22:18:58.457Z,22.30
2023-05-05T22:21:27.608Z,19.50
2023-05-05T22:23:55.727Z,18.40
2023-05-05T22:26:23.978Z,18.20
2023-05-05T22:28:52.032Z,17.10
2023-05-05T22:31:23.016Z,20.00
2023-05-05T22:33:51.417Z,16.60
2023-05-05T22:36:21.820Z,21.50
2023-05-05T22:38:54.426Z,18.60
2023-05-05T22:41:23.938Z,19.00
2023-05-05T22:43:51.962Z,20.60
2023-05-05T22:46:20.343Z,18.10
2023-05-05T22:48:49.176Z,21.00
2023-05-05T22:51:19.025Z,22.20
2023-05-05T22:53:47.169Z,16.50
2023-05-05T22:56:15.641Z,19.80
2023-05-05T22:58:47.032Z,17.60
2023-05-05T23:01:18.338Z,18.50
2023-05-05T23:03:51.783Z,16.30
2023-05-05T23:06:21.987Z,19.20
2023-05-05T23:08:50.161Z,18.30
2023-05-05T23:11:20.592Z,15.90
2023-05-05T23:13:51.092Z,17.40
2023-05-05T23:16:20.196Z,22.80
2023-05-05T23:18:50.957Z,18.50
2023-05-05T23:21:19.356Z,18.80
2023-05-05T23:23:56.267Z,13.90
2023-05-05T23:26:24.455Z,18.20
2023-05-05T23:28:52.716Z,17.90
2023-05-05T23:31:21.005Z,15.60
2023-05-05T23:33:52.453Z,19.00
2023-05-05T23:36:27.651Z,13.80
2023-05-05T23:38:57.810Z,17.90
2023-05-05T23:41:26.021Z,13.90
2023-05-05T23:43:54.179Z,14.50
2023-05-05T23:46:24.140Z,15.30
2023-05-05T23:48:58.255Z,14.10
2023-05-05T23:51:28.840Z,13.80
2023-05-05T23:53:59.706Z,14.80
2023-05-05T23:56:28.146Z,16.00
2023-05-05T23:58:57.989Z,12.00
